createdAt,value
2023-01-26T00:00:12.526Z,1018.92
2023-01-26T00:01:12.284Z,1018.85
2023-01-26T00:02:12.267Z,1018.89
2023-01-26T00:03:12.261Z,1018.91
2023-01-26T00:04:12.291Z,1018.87
2023-01-26T00:05:12.246Z,1018.89
2023-01-26T00:06:12.209Z,1018.83
2023-01-26T00:07:12.207Z,1018.81
2023-01-26T00:08:12.189Z,1018.80
2023-01-26T00:09:12.176Z,1018.82
2023-01-26T00:10:12.430Z,1018.85
2023-01-26T00:11:12.165Z,1018.83
2023-01-26T00:12:12.152Z,1018.78
2023-01-26T00:13:12.145Z,1018.73
2023-01-26T00:14:12.132Z,1018.70
2023-01-26T00:15:12.099Z,1018.77
2023-01-26T00:16:12.100Z,1018.72
2023-01-26T00:17:12.060Z,1018.72
2023-01-26T00:18:12.076Z,1018.75
2023-01-26T00:19:12.095Z,1018.71
2023-01-26T00:20:12.351Z,1018.74
2023-01-26T00:21:12.019Z,1018.77
2023-01-26T00:22:11.999Z,1018.69
2023-01-26T00:23:12.002Z,1018.71
2023-01-26T00:24:12.023Z,1018.64
2023-01-26T00:25:12.023Z,1018.68
2023-01-26T00:26:11.949Z,1018.61
2023-01-26T00:27:11.947Z,1018.66
2023-01-26T00:28:11.938Z,1018.63
2023-01-26T00:29:11.925Z,1018.60
2023-01-26T00:30:12.293Z,1018.63
2023-01-26T00:31:11.945Z,1018.57
2023-01-26T00:32:11.888Z,1018.50
2023-01-26T00:33:11.883Z,1018.57
2023-01-26T00:34:11.852Z,1018.57
2023-01-26T00:35:11.848Z,1018.46
2023-01-26T00:36:11.828Z,1018.54
2023-01-26T00:37:11.840Z,1018.48
2023-01-26T00:38:11.830Z,1018.51
2023-01-26T00:39:11.786Z,1018.46
2023-01-26T00:40:12.178Z,1018.53
2023-01-26T00:41:11.770Z,1018.51
2023-01-26T00:42:11.773Z,1018.44
2023-01-26T00:43:11.747Z,1018.49
2023-01-26T00:44:11.732Z,1018.50
2023-01-26T00:45:11.774Z,1018.48
2023-01-26T00:46:11.727Z,1018.40
2023-01-26T00:47:11.703Z,1018.42
2023-01-26T00:48:11.687Z,1018.43
2023-01-26T00:49:11.676Z,1018.49
2023-01-26T00:50:11.939Z,1018.47
2023-01-26T00:51:11.626Z,1018.44
2023-01-26T00:52:11.618Z,1018.49
2023-01-26T00:53:11.641Z,1018.47
2023-01-26T00:54:11.590Z,1018.47
2023-01-26T00:55:11.585Z,1018.47
2023-01-26T00:56:11.575Z,1018.48
2023-01-26T00:57:11.554Z,1018.49
2023-01-26T00:58:11.568Z,1018.50
2023-01-26T00:59:11.562Z,1018.46
2023-01-26T01:00:11.774Z,1018.46
2023-01-26T01:01:11.585Z,1018.47
2023-01-26T01:02:11.565Z,1018.40
2023-01-26T01:03:11.477Z,1018.40
2023-01-26T01:04:11.467Z,1018.47
2023-01-26T01:05:11.474Z,1018.48
2023-01-26T01:06:11.461Z,1018.46
2023-01-26T01:07:11.444Z,1018.44
2023-01-26T01:08:11.430Z,1018.45
2023-01-26T01:09:11.420Z,1018.42
2023-01-26T01:10:11.618Z,1018.39
2023-01-26T01:11:11.412Z,1018.39
2023-01-26T01:12:11.366Z,1018.37
2023-01-26T01:13:11.384Z,1018.38
2023-01-26T01:14:11.341Z,1018.31
2023-01-26T01:15:11.339Z,1018.37
2023-01-26T01:16:11.375Z,1018.36
2023-01-26T01:17:11.333Z,1018.37
2023-01-26T01:18:11.297Z,1018.36
2023-01-26T01:19:11.314Z,1018.35
2023-01-26T01:20:11.745Z,1018.34
2023-01-26T01:21:11.269Z,1018.35
2023-01-26T01:22:11.243Z,1018.41
2023-01-26T01:23:11.262Z,1018.33
2023-01-26T01:24:11.291Z,1018.35
2023-01-26T01:25:11.210Z,1018.36
2023-01-26T01:26:11.202Z,1018.37
2023-01-26T01:27:11.175Z,1018.32
2023-01-26T01:28:11.185Z,1018.31
2023-01-26T01:29:11.159Z,1018.26
2023-01-26T01:30:11.530Z,1018.23
2023-01-26T01:31:11.230Z,1018.17
2023-01-26T01:32:11.116Z,1018.22
2023-01-26T01:33:11.105Z,1018.23
2023-01-26T01:34:11.087Z,1018.19
2023-01-26T01:35:11.072Z,1018.22
2023-01-26T01:36:11.110Z,1018.21
2023-01-26T01:37:11.076Z,1018.13
2023-01-26T01:38:11.059Z,1018.17
2023-01-26T01:39:11.047Z,1018.17
2023-01-26T01:40:11.385Z,1018.21
2023-01-26T01:41:11.030Z,1018.21
2023-01-26T01:42:11.001Z,1018.22
2023-01-26T01:43:18.484Z,1018.25
2023-01-26T01:44:10.970Z,1018.21
2023-01-26T01:45:10.978Z,1018.16
2023-01-26T01:46:11.174Z,1018.16
2023-01-26T01:47:10.915Z,1018.11
2023-01-26T01:48:10.925Z,1018.09
2023-01-26T01:49:10.893Z,1018.03
2023-01-26T01:50:11.256Z,1018.06
2023-01-26T01:51:10.947Z,1018.01
2023-01-26T01:52:10.898Z,1017.96
2023-01-26T01:53:10.858Z,1018.02
2023-01-26T01:54:10.830Z,1017.98
2023-01-26T01:55:20.633Z,1018.06
2023-01-26T01:56:10.803Z,1018.01
2023-01-26T01:57:10.811Z,1018.01
2023-01-26T01:58:10.776Z,1017.99
2023-01-26T01:59:10.757Z,1018.02
2023-01-26T02:00:11.126Z,1017.98
2023-01-26T02:01:10.793Z,1018.03
2023-01-26T02:02:10.739Z,1018.00
2023-01-26T02:03:10.718Z,1018.00
2023-01-26T02:04:10.689Z,1017.94
2023-01-26T02:05:10.696Z,1017.97
2023-01-26T02:06:10.712Z,1017.93
2023-01-26T02:07:17.771Z,1017.94
2023-01-26T02:08:10.669Z,1017.93
2023-01-26T02:09:10.643Z,1018.00
2023-01-26T02:10:10.915Z,1017.94
2023-01-26T02:11:38.284Z,1017.93
2023-01-26T02:12:31.608Z,1017.89
2023-01-26T02:13:10.608Z,1017.90
2023-01-26T02:14:10.574Z,1017.85
2023-01-26T02:15:10.563Z,1017.87
2023-01-26T02:16:10.607Z,1017.85
2023-01-26T02:17:10.551Z,1017.84
2023-01-26T02:18:10.532Z,1017.85
2023-01-26T02:19:10.516Z,1017.77
2023-01-26T02:20:10.729Z,1017.75
2023-01-26T02:21:10.492Z,1017.74
2023-01-26T02:22:10.477Z,1017.72
2023-01-26T02:23:10.471Z,1017.77
2023-01-26T02:24:10.521Z,1017.69
2023-01-26T02:25:10.427Z,1017.65
2023-01-26T02:26:10.441Z,1017.70
2023-01-26T02:27:10.424Z,1017.61
2023-01-26T02:28:10.405Z,1017.66
2023-01-26T02:29:10.440Z,1017.66
2023-01-26T02:30:10.669Z,1017.59
2023-01-26T02:31:10.449Z,1017.60
2023-01-26T02:32:10.362Z,1017.67
2023-01-26T02:33:10.341Z,1017.59
2023-01-26T02:34:10.352Z,1017.58
2023-01-26T02:35:10.362Z,1017.59
2023-01-26T02:36:10.358Z,1017.56
2023-01-26T02:37:10.293Z,1017.57
2023-01-26T02:38:10.282Z,1017.54
2023-01-26T02:39:10.261Z,1017.52
2023-01-26T02:40:10.689Z,1017.47
2023-01-26T02:41:10.247Z,1017.48
2023-01-26T02:42:10.233Z,1017.43
2023-01-26T02:43:10.219Z,1017.40
2023-01-26T02:44:10.215Z,1017.36
2023-01-26T02:45:10.220Z,1017.33
2023-01-26T02:46:10.238Z,1017.27
2023-01-26T02:47:10.193Z,1017.34
2023-01-26T02:48:10.148Z,1017.32
2023-01-26T02:49:10.139Z,1017.36
2023-01-26T02:50:10.503Z,1017.27
2023-01-26T02:51:10.110Z,1017.30
2023-01-26T02:52:10.106Z,1017.30
2023-01-26T02:53:10.093Z,1017.30
2023-01-26T02:54:10.066Z,1017.25
2023-01-26T02:55:10.076Z,1017.33
2023-01-26T02:56:10.065Z,1017.36
2023-01-26T02:57:10.086Z,1017.27
2023-01-26T02:58:10.073Z,1017.31
2023-01-26T02:59:10.006Z,1017.34
2023-01-26T03:00:10.174Z,1017.34
2023-01-26T03:01:10.037Z,1017.29
2023-01-26T03:02:10.053Z,1017.30
2023-01-26T03:03:09.978Z,1017.31
2023-01-26T03:04:09.952Z,1017.35
2023-01-26T03:05:09.938Z,1017.27
2023-01-26T03:06:09.921Z,1017.34
2023-01-26T03:07:09.927Z,1017.32
2023-01-26T03:08:09.916Z,1017.26
2023-01-26T03:09:09.913Z,1017.34
2023-01-26T03:10:10.077Z,1017.29
2023-01-26T03:11:09.872Z,1017.28
2023-01-26T03:12:09.837Z,1017.26
2023-01-26T03:13:09.855Z,1017.33
2023-01-26T03:14:09.826Z,1017.35
2023-01-26T03:15:09.816Z,1017.42
2023-01-26T03:16:09.817Z,1017.39
2023-01-26T03:17:09.800Z,1017.35
2023-01-26T03:18:09.782Z,1017.38
2023-01-26T03:19:09.767Z,1017.40
2023-01-26T03:20:10.127Z,1017.36
2023-01-26T03:21:09.762Z,1017.31
2023-01-26T03:22:09.719Z,1017.35
2023-01-26T03:23:09.705Z,1017.33
2023-01-26T03:24:09.746Z,1017.26
2023-01-26T03:25:09.674Z,1017.37
2023-01-26T03:26:09.692Z,1017.28
2023-01-26T03:27:09.656Z,1017.32
2023-01-26T03:28:09.636Z,1017.33
2023-01-26T03:29:09.635Z,1017.33
2023-01-26T03:30:09.925Z,1017.35
2023-01-26T03:31:09.674Z,1017.35
2023-01-26T03:32:09.604Z,1017.32
2023-01-26T03:33:09.576Z,1017.29
2023-01-26T03:34:09.565Z,1017.28
2023-01-26T03:35:09.546Z,1017.28
2023-01-26T03:36:09.557Z,1017.23
2023-01-26T03:37:09.558Z,1017.23
2023-01-26T03:38:09.520Z,1017.19
2023-01-26T03:39:09.538Z,1017.23
2023-01-26T03:40:10.007Z,1017.27
2023-01-26T03:41:09.478Z,1017.23
2023-01-26T03:42:09.489Z,1017.24
2023-01-26T03:43:09.469Z,1017.28
2023-01-26T03:44:09.459Z,1017.26
2023-01-26T03:45:09.438Z,1017.21
2023-01-26T03:46:09.413Z,1017.22
2023-01-26T03:47:09.393Z,1017.30
2023-01-26T03:48:09.410Z,1017.23
2023-01-26T03:49:09.375Z,1017.32
2023-01-26T03:50:09.756Z,1017.28
2023-01-26T03:51:09.363Z,1017.24
2023-01-26T03:52:09.345Z,1017.25
2023-01-26T03:53:09.333Z,1017.29
2023-01-26T03:54:09.326Z,1017.25
2023-01-26T03:55:09.337Z,1017.25
2023-01-26T03:56:09.307Z,1017.22
2023-01-26T03:57:09.286Z,1017.26
2023-01-26T03:58:09.289Z,1017.24
2023-01-26T03:59:09.260Z,1017.26
2023-01-26T04:00:09.606Z,1017.28
2023-01-26T04:01:09.236Z,1017.26
2023-01-26T04:02:09.241Z,1017.19
2023-01-26T04:03:09.194Z,1017.23
2023-01-26T04:04:09.194Z,1017.18
2023-01-26T04:05:09.211Z,1017.14
2023-01-26T04:06:15.654Z,1017.14
2023-01-26T04:07:10.165Z,1017.24
2023-01-26T04:08:09.136Z,1017.15
2023-01-26T04:09:09.123Z,1017.22
2023-01-26T04:10:09.381Z,1017.22
2023-01-26T04:11:09.118Z,1017.20
2023-01-26T04:12:09.083Z,1017.14
2023-01-26T04:13:09.108Z,1017.11
2023-01-26T04:14:09.085Z,1017.16
2023-01-26T04:15:13.308Z,1017.18
2023-01-26T04:16:09.063Z,1017.15
2023-01-26T04:17:09.033Z,1017.10
2023-01-26T04:18:09.013Z,1017.13
2023-01-26T04:19:09.010Z,1017.10
2023-01-26T04:20:09.444Z,1017.07
2023-01-26T04:21:08.991Z,1017.12
2023-01-26T04:22:08.971Z,1017.11
2023-01-26T04:23:08.971Z,1017.12
2023-01-26T04:24:09.079Z,1017.11
2023-01-26T04:25:08.925Z,1017.07
2023-01-26T04:26:08.901Z,1017.14
2023-01-26T04:27:08.901Z,1017.03
2023-01-26T04:28:08.882Z,1017.05
2023-01-26T04:29:08.862Z,1017.08
2023-01-26T04:30:09.234Z,1017.04
2023-01-26T04:31:08.843Z,1016.97
2023-01-26T04:32:08.851Z,1016.98
2023-01-26T04:33:08.822Z,1017.02
2023-01-26T04:34:08.815Z,1016.95
2023-01-26T04:35:08.781Z,1016.93
2023-01-26T04:36:08.792Z,1016.93
2023-01-26T04:37:08.775Z,1016.91
2023-01-26T04:38:08.793Z,1016.88
2023-01-26T04:39:08.741Z,1016.85
2023-01-26T04:40:08.864Z,1016.87
2023-01-26T04:41:08.745Z,1016.91
2023-01-26T04:42:08.712Z,1016.87
2023-01-26T04:43:08.706Z,1016.84
2023-01-26T04:44:08.695Z,1016.83
2023-01-26T04:45:08.661Z,1016.85
2023-01-26T04:46:08.820Z,1016.84
2023-01-26T04:47:08.663Z,1016.82
2023-01-26T04:48:08.631Z,1016.83
2023-01-26T04:49:08.610Z,1016.78
2023-01-26T04:50:08.650Z,1016.75
2023-01-26T04:51:08.594Z,1016.76
2023-01-26T04:52:08.593Z,1016.75
2023-01-26T04:53:08.562Z,1016.76
2023-01-26T04:54:08.568Z,1016.71
2023-01-26T04:55:08.547Z,1016.68
2023-01-26T04:56:08.531Z,1016.72
2023-01-26T04:57:08.544Z,1016.60
2023-01-26T04:58:08.518Z,1016.70
2023-01-26T04:59:08.497Z,1016.61
2023-01-26T05:00:08.532Z,1016.67
2023-01-26T05:01:08.521Z,1016.70
2023-01-26T05:02:08.450Z,1016.61
2023-01-26T05:03:10.320Z,1016.58
2023-01-26T05:04:08.462Z,1016.67
2023-01-26T05:05:08.412Z,1016.70
2023-01-26T05:06:08.415Z,1016.59
2023-01-26T05:07:08.406Z,1016.67
2023-01-26T05:08:08.403Z,1016.68
2023-01-26T05:09:08.378Z,1016.71
2023-01-26T05:10:08.447Z,1016.70
2023-01-26T05:11:08.351Z,1016.68
2023-01-26T05:12:08.320Z,1016.68
2023-01-26T05:13:08.299Z,1016.64
2023-01-26T05:14:08.304Z,1016.63
2023-01-26T05:15:08.324Z,1016.60
2023-01-26T05:16:08.341Z,1016.70
2023-01-26T05:17:08.287Z,1016.68
2023-01-26T05:18:08.263Z,1016.65
2023-01-26T05:19:08.243Z,1016.70
2023-01-26T05:20:08.217Z,1016.64
2023-01-26T05:21:08.219Z,1016.62
2023-01-26T05:22:08.214Z,1016.60
2023-01-26T05:23:08.193Z,1016.67
2023-01-26T05:24:08.240Z,1016.63
2023-01-26T05:25:08.174Z,1016.65
2023-01-26T05:26:08.179Z,1016.67
2023-01-26T05:27:08.143Z,1016.67
2023-01-26T05:28:08.132Z,1016.64
2023-01-26T05:29:08.124Z,1016.65
2023-01-26T05:30:08.241Z,1016.65
2023-01-26T05:31:08.148Z,1016.73
2023-01-26T05:32:08.078Z,1016.67
2023-01-26T05:33:08.065Z,1016.71
2023-01-26T05:34:08.046Z,1016.74
2023-01-26T05:35:08.040Z,1016.69
2023-01-26T05:36:08.028Z,1016.75
2023-01-26T05:37:08.024Z,1016.73
2023-01-26T05:38:08.015Z,1016.74
2023-01-26T05:39:07.996Z,1016.69
2023-01-26T05:40:08.177Z,1016.73
2023-01-26T05:41:07.974Z,1016.70
2023-01-26T05:42:07.971Z,1016.72
2023-01-26T05:43:07.930Z,1016.75
2023-01-26T05:44:10.314Z,1016.79
2023-01-26T05:45:07.908Z,1016.75
2023-01-26T05:46:07.977Z,1016.82
2023-01-26T05:47:07.913Z,1016.85
2023-01-26T05:48:07.872Z,1016.85
2023-01-26T05:49:07.856Z,1016.81
2023-01-26T05:50:07.877Z,1016.76
2023-01-26T05:51:07.862Z,1016.71
2023-01-26T05:52:07.817Z,1016.70
2023-01-26T05:53:07.827Z,1016.71
2023-01-26T05:54:07.855Z,1016.65
2023-01-26T05:55:07.786Z,1016.73
2023-01-26T05:56:07.766Z,1016.69
2023-01-26T05:57:07.768Z,1016.70
2023-01-26T05:58:07.755Z,1016.68
2023-01-26T05:59:07.820Z,1016.68
2023-01-26T06:00:07.776Z,1016.67
2023-01-26T06:01:07.710Z,1016.66
2023-01-26T06:02:07.726Z,1016.67
2023-01-26T06:03:07.667Z,1016.56
2023-01-26T06:04:07.735Z,1016.66
2023-01-26T06:05:07.879Z,1016.62
2023-01-26T06:06:07.662Z,1016.66
2023-01-26T06:07:07.642Z,1016.63
2023-01-26T06:08:07.619Z,1016.65
2023-01-26T06:09:07.604Z,1016.65
2023-01-26T06:10:07.602Z,1016.60
2023-01-26T06:11:07.591Z,1016.63
2023-01-26T06:12:07.632Z,1016.62
2023-01-26T06:13:07.559Z,1016.71
2023-01-26T06:14:07.587Z,1016.69
2023-01-26T06:15:07.578Z,1016.70
2023-01-26T06:16:07.551Z,1016.69
2023-01-26T06:17:07.511Z,1016.74
2023-01-26T06:18:07.530Z,1016.77
2023-01-26T06:19:07.491Z,1016.75
2023-01-26T06:20:07.468Z,1016.76
2023-01-26T06:21:07.463Z,1016.77
2023-01-26T06:22:07.436Z,1016.80
2023-01-26T06:23:07.435Z,1016.75
2023-01-26T06:24:07.551Z,1016.83
2023-01-26T06:25:07.397Z,1016.75
2023-01-26T06:26:08.854Z,1016.71
2023-01-26T06:27:07.386Z,1016.79
2023-01-26T06:28:07.380Z,1016.76
2023-01-26T06:29:07.415Z,1016.77
2023-01-26T06:30:07.364Z,1016.79
2023-01-26T06:31:07.615Z,1016.79
2023-01-26T06:32:07.321Z,1016.71
2023-01-26T06:33:07.325Z,1016.76
2023-01-26T06:34:07.309Z,1016.73
2023-01-26T06:35:07.345Z,1016.80
2023-01-26T06:36:07.277Z,1016.79
2023-01-26T06:37:07.259Z,1016.86
2023-01-26T06:38:07.259Z,1016.88
2023-01-26T06:39:07.239Z,1016.89
2023-01-26T06:40:07.225Z,1016.86
2023-01-26T06:41:07.226Z,1016.92
2023-01-26T06:42:07.186Z,1016.92
2023-01-26T06:43:07.177Z,1016.86
2023-01-26T06:44:07.154Z,1016.94
2023-01-26T06:45:07.179Z,1016.89
2023-01-26T06:46:07.169Z,1016.85
2023-01-26T06:47:07.125Z,1016.86
2023-01-26T06:48:07.117Z,1016.88
2023-01-26T06:49:07.109Z,1016.84
2023-01-26T06:50:07.076Z,1016.83
2023-01-26T06:51:07.092Z,1016.87
2023-01-26T06:52:07.052Z,1016.85
2023-01-26T06:53:07.052Z,1016.90
2023-01-26T06:54:07.043Z,1016.89
2023-01-26T06:55:07.030Z,1016.86
2023-01-26T06:56:07.019Z,1016.81
2023-01-26T06:57:07.011Z,1016.85
2023-01-26T06:58:07.004Z,1016.88
2023-01-26T06:59:07.005Z,1016.86
2023-01-26T07:00:06.951Z,1016.92
2023-01-26T07:01:07.026Z,1016.90
2023-01-26T07:02:06.955Z,1016.95
2023-01-26T07:03:06.924Z,1016.86
2023-01-26T07:04:06.921Z,1016.90
2023-01-26T07:05:06.895Z,1016.89
2023-01-26T07:06:06.880Z,1016.86
2023-01-26T07:07:06.874Z,1016.90
2023-01-26T07:08:06.863Z,1016.88
2023-01-26T07:09:06.858Z,1016.85
2023-01-26T07:10:06.840Z,1016.82
2023-01-26T07:11:09.018Z,1016.87
2023-01-26T07:12:06.808Z,1016.88
2023-01-26T07:13:06.798Z,1016.88
2023-01-26T07:14:06.794Z,1016.88
2023-01-26T07:15:06.769Z,1016.86
2023-01-26T07:16:06.789Z,1016.88
2023-01-26T07:17:06.741Z,1016.90
2023-01-26T07:18:06.723Z,1016.82
2023-01-26T07:19:06.730Z,1016.87
2023-01-26T07:20:06.706Z,1016.89
2023-01-26T07:21:06.693Z,1016.89
2023-01-26T07:22:06.707Z,1016.88
2023-01-26T07:23:06.681Z,1016.89
2023-01-26T07:24:06.702Z,1016.85
2023-01-26T07:25:06.696Z,1016.86
2023-01-26T07:26:06.705Z,1016.86
2023-01-26T07:27:06.612Z,1016.82
2023-01-26T07:28:06.606Z,1016.81
2023-01-26T07:29:06.595Z,1016.81
2023-01-26T07:30:06.596Z,1016.80
2023-01-26T07:31:06.683Z,1016.74
2023-01-26T07:32:06.574Z,1016.80
2023-01-26T07:33:06.546Z,1016.86
2023-01-26T07:34:06.526Z,1016.85
2023-01-26T07:35:06.540Z,1016.86
2023-01-26T07:36:06.514Z,1016.87
2023-01-26T07:37:06.505Z,1016.88
2023-01-26T07:38:06.469Z,1016.88
2023-01-26T07:39:08.425Z,1016.97
2023-01-26T07:40:06.443Z,1016.92
2023-01-26T07:41:06.536Z,1016.89
2023-01-26T07:42:06.431Z,1016.95
2023-01-26T07:43:06.426Z,1016.94
2023-01-26T07:44:06.474Z,1016.97
2023-01-26T07:45:06.469Z,1016.92
2023-01-26T07:46:06.462Z,1016.87
2023-01-26T07:47:06.364Z,1016.80
2023-01-26T07:48:06.366Z,1016.82
2023-01-26T07:49:06.353Z,1016.84
2023-01-26T07:50:06.338Z,1016.87
2023-01-26T07:51:06.314Z,1016.80
2023-01-26T07:52:06.291Z,1016.87
2023-01-26T07:53:06.285Z,1016.86
2023-01-26T07:54:06.267Z,1016.91
2023-01-26T07:55:06.272Z,1016.86
2023-01-26T07:56:13.272Z,1016.88
2023-01-26T07:57:06.233Z,1016.91
2023-01-26T07:58:06.207Z,1016.89
2023-01-26T07:59:06.215Z,1016.89
2023-01-26T08:00:06.186Z,1016.91
2023-01-26T08:01:06.186Z,1016.96
2023-01-26T08:02:06.160Z,1016.91
2023-01-26T08:03:06.200Z,1016.91
2023-01-26T08:04:06.128Z,1016.98
2023-01-26T08:05:06.132Z,1016.96
2023-01-26T08:06:06.124Z,1016.93
2023-01-26T08:07:06.117Z,1016.96
2023-01-26T08:08:06.091Z,1016.98
2023-01-26T08:09:06.074Z,1016.99
2023-01-26T08:10:06.070Z,1017.00
2023-01-26T08:11:06.045Z,1016.97
2023-01-26T08:12:06.027Z,1017.01
2023-01-26T08:13:06.044Z,1016.96
2023-01-26T08:14:06.001Z,1016.99
2023-01-26T08:15:05.988Z,1016.98
2023-01-26T08:16:06.071Z,1016.91
2023-01-26T08:17:05.986Z,1016.96
2023-01-26T08:18:05.951Z,1016.97
2023-01-26T08:19:05.943Z,1016.99
2023-01-26T08:20:05.940Z,1016.98
2023-01-26T08:21:05.931Z,1017.03
2023-01-26T08:22:05.930Z,1016.99
2023-01-26T08:23:05.904Z,1017.00
2023-01-26T08:24:05.984Z,1017.00
2023-01-26T08:25:05.880Z,1017.09
2023-01-26T08:26:05.902Z,1017.04
2023-01-26T08:27:05.870Z,1017.06
2023-01-26T08:28:05.830Z,1017.09
2023-01-26T08:29:05.861Z,1017.02
2023-01-26T08:30:05.806Z,1016.99
2023-01-26T08:31:05.840Z,1016.99
2023-01-26T08:32:05.847Z,1017.03
2023-01-26T08:33:05.771Z,1016.93
2023-01-26T08:34:05.760Z,1016.96
2023-01-26T08:35:05.747Z,1017.01
2023-01-26T08:36:05.741Z,1016.98
2023-01-26T08:37:05.713Z,1017.02
2023-01-26T08:38:05.704Z,1017.06
2023-01-26T08:39:05.717Z,1016.98
2023-01-26T08:40:05.690Z,1017.11
2023-01-26T08:41:05.679Z,1017.04
2023-01-26T08:42:05.645Z,1017.09
2023-01-26T08:43:05.635Z,1017.05
2023-01-26T08:44:05.631Z,1017.13
2023-01-26T08:45:05.643Z,1017.11
2023-01-26T08:46:05.623Z,1017.08
2023-01-26T08:47:05.596Z,1017.08
2023-01-26T08:48:05.582Z,1016.99
2023-01-26T08:49:05.582Z,1017.09
2023-01-26T08:50:05.548Z,1017.07
2023-01-26T08:51:05.531Z,1017.07
2023-01-26T08:52:05.532Z,1017.05
2023-01-26T08:53:05.518Z,1017.10
2023-01-26T08:54:05.544Z,1017.09
2023-01-26T08:55:05.508Z,1017.02
2023-01-26T08:56:05.468Z,1017.09
2023-01-26T08:57:05.506Z,1017.04
2023-01-26T08:58:05.450Z,1017.04
2023-01-26T08:59:05.448Z,1016.96
2023-01-26T09:00:05.452Z,1016.98
2023-01-26T09:01:05.465Z,1016.99
2023-01-26T09:02:05.444Z,1017.00
2023-01-26T09:03:05.552Z,1016.99
2023-01-26T09:04:05.378Z,1017.07
2023-01-26T09:05:05.354Z,1017.02
2023-01-26T09:06:05.343Z,1017.12
2023-01-26T09:07:05.332Z,1017.14
2023-01-26T09:08:05.303Z,1017.08
2023-01-26T09:09:05.319Z,1017.06
2023-01-26T09:10:05.283Z,1017.10
2023-01-26T09:11:05.298Z,1017.09
2023-01-26T09:12:05.287Z,1017.05
2023-01-26T09:13:05.251Z,1017.03
2023-01-26T09:14:05.279Z,1017.07
2023-01-26T09:15:05.227Z,1017.09
2023-01-26T09:16:05.221Z,1017.02
2023-01-26T09:17:05.223Z,1017.02
2023-01-26T09:18:05.208Z,1017.03
2023-01-26T09:19:05.194Z,1017.01
2023-01-26T09:20:05.176Z,1017.01
2023-01-26T09:21:05.165Z,1017.04
2023-01-26T09:22:05.177Z,1017.07
2023-01-26T09:23:05.149Z,1017.04
2023-01-26T09:24:05.139Z,1017.17
2023-01-26T09:25:05.144Z,1017.12
2023-01-26T09:26:05.087Z,1017.18
2023-01-26T09:27:05.072Z,1017.23
2023-01-26T09:28:05.657Z,1017.20
2023-01-26T09:29:05.041Z,1017.20
2023-01-26T09:30:05.068Z,1017.28
2023-01-26T09:31:05.289Z,1017.22
2023-01-26T09:32:05.002Z,1017.28
2023-01-26T09:33:04.999Z,1017.28
2023-01-26T09:34:05.054Z,1017.29
2023-01-26T09:35:04.963Z,1017.30
2023-01-26T09:36:04.978Z,1017.32
2023-01-26T09:37:04.957Z,1017.30
2023-01-26T09:38:04.963Z,1017.29
2023-01-26T09:39:04.947Z,1017.23
2023-01-26T09:40:04.904Z,1017.23
2023-01-26T09:41:04.914Z,1017.31
2023-01-26T09:42:04.907Z,1017.29
2023-01-26T09:43:04.885Z,1017.24
2023-01-26T09:44:04.843Z,1017.15
2023-01-26T09:45:04.840Z,1017.22
2023-01-26T09:46:04.984Z,1017.23
2023-01-26T09:47:04.828Z,1017.18
2023-01-26T09:48:04.792Z,1017.14
2023-01-26T09:49:04.826Z,1017.20
2023-01-26T09:50:04.791Z,1017.12
2023-01-26T09:51:04.776Z,1017.16
2023-01-26T09:52:04.770Z,1017.16
2023-01-26T09:53:04.754Z,1017.15
2023-01-26T09:54:04.735Z,1017.14
2023-01-26T09:55:04.727Z,1017.10
2023-01-26T09:56:04.714Z,1017.14
2023-01-26T09:57:04.693Z,1017.11
2023-01-26T09:58:04.680Z,1017.08
2023-01-26T09:59:04.687Z,1017.08
2023-01-26T10:00:04.641Z,1017.05
2023-01-26T10:01:04.691Z,1017.01
2023-01-26T10:02:04.634Z,1017.05
2023-01-26T10:03:04.628Z,1017.03
2023-01-26T10:04:04.615Z,1017.00
2023-01-26T10:05:04.592Z,1017.05
2023-01-26T10:06:04.587Z,1017.02
2023-01-26T10:07:04.573Z,1017.06
2023-01-26T10:08:04.555Z,1017.01
2023-01-26T10:09:04.542Z,1017.13
2023-01-26T10:10:04.544Z,1017.08
2023-01-26T10:11:04.544Z,1017.13
2023-01-26T10:12:04.516Z,1017.07
2023-01-26T10:13:04.482Z,1017.08
2023-01-26T10:14:04.501Z,1017.05
2023-01-26T10:15:04.460Z,1017.03
2023-01-26T10:16:04.562Z,1017.03
2023-01-26T10:17:04.445Z,1016.96
2023-01-26T10:18:04.421Z,1016.97
2023-01-26T10:19:04.411Z,1016.91
2023-01-26T10:20:04.414Z,1016.95
2023-01-26T10:21:04.390Z,1016.90
2023-01-26T10:22:04.361Z,1016.90
2023-01-26T10:23:04.373Z,1016.92
2023-01-26T10:24:04.356Z,1016.91
2023-01-26T10:25:04.321Z,1017.00
2023-01-26T10:26:04.318Z,1016.96
2023-01-26T10:27:04.314Z,1016.96
2023-01-26T10:28:04.301Z,1016.96
2023-01-26T10:29:04.285Z,1017.00
2023-01-26T10:30:04.270Z,1017.00
2023-01-26T10:31:04.371Z,1016.95
2023-01-26T10:32:04.244Z,1016.97
2023-01-26T10:33:04.227Z,1016.93
2023-01-26T10:34:04.209Z,1016.93
2023-01-26T10:35:04.214Z,1016.89
2023-01-26T10:36:04.204Z,1016.83
2023-01-26T10:37:04.195Z,1016.86
2023-01-26T10:38:04.173Z,1016.85
2023-01-26T10:39:04.148Z,1016.78
2023-01-26T10:40:04.135Z,1016.77
2023-01-26T10:41:04.143Z,1016.77
2023-01-26T10:42:04.118Z,1016.72
2023-01-26T10:43:04.091Z,1016.71
2023-01-26T10:44:04.079Z,1016.65
2023-01-26T10:45:04.074Z,1016.72
2023-01-26T10:46:04.122Z,1016.65
2023-01-26T10:47:04.051Z,1016.60
2023-01-26T10:48:04.045Z,1016.64
2023-01-26T10:49:04.031Z,1016.65
2023-01-26T10:50:04.016Z,1016.66
2023-01-26T10:51:03.989Z,1016.70
2023-01-26T10:52:04.028Z,1016.64
2023-01-26T10:53:04.017Z,1016.70
2023-01-26T10:54:03.972Z,1016.71
2023-01-26T10:55:03.939Z,1016.58
2023-01-26T10:56:03.942Z,1016.64
2023-01-26T10:57:03.940Z,1016.53
2023-01-26T10:58:03.933Z,1016.57
2023-01-26T10:59:03.901Z,1016.54
2023-01-26T11:00:03.901Z,1016.52
2023-01-26T11:01:03.859Z,1016.50
2023-01-26T11:02:03.893Z,1016.55
2023-01-26T11:03:03.926Z,1016.51
2023-01-26T11:04:03.876Z,1016.50
2023-01-26T11:05:03.835Z,1016.49
2023-01-26T11:06:03.809Z,1016.53
2023-01-26T11:07:03.789Z,1016.44
2023-01-26T11:08:03.792Z,1016.48
2023-01-26T11:09:03.772Z,1016.46
2023-01-26T11:10:03.771Z,1016.49
2023-01-26T11:11:03.760Z,1016.45
2023-01-26T11:12:03.732Z,1016.47
2023-01-26T11:13:03.736Z,1016.44
2023-01-26T11:14:03.697Z,1016.43
2023-01-26T11:15:03.702Z,1016.46
2023-01-26T11:16:03.831Z,1016.45
2023-01-26T11:17:03.657Z,1016.40
2023-01-26T11:18:03.669Z,1016.42
2023-01-26T11:19:03.650Z,1016.44
2023-01-26T11:20:03.643Z,1016.43
2023-01-26T11:21:03.610Z,1016.44
2023-01-26T11:22:03.612Z,1016.40
2023-01-26T11:23:03.580Z,1016.37
2023-01-26T11:24:03.579Z,1016.44
2023-01-26T11:25:03.571Z,1016.32
2023-01-26T11:26:03.548Z,1016.39
2023-01-26T11:27:03.545Z,1016.45
2023-01-26T11:28:03.532Z,1016.44
2023-01-26T11:29:03.516Z,1016.39
2023-01-26T11:30:03.496Z,1016.36
2023-01-26T11:31:03.618Z,1016.33
2023-01-26T11:32:03.481Z,1016.31
2023-01-26T11:33:03.451Z,1016.29
2023-01-26T11:34:03.462Z,1016.33
2023-01-26T11:35:03.451Z,1016.32
2023-01-26T11:36:03.444Z,1016.24
2023-01-26T11:37:03.420Z,1016.31
2023-01-26T11:38:03.403Z,1016.25
2023-01-26T11:39:03.547Z,1016.24
2023-01-26T11:40:03.416Z,1016.24
2023-01-26T11:41:03.356Z,1016.25
2023-01-26T11:42:03.343Z,1016.22
2023-01-26T11:43:03.350Z,1016.24
2023-01-26T11:44:03.367Z,1016.24
2023-01-26T11:45:03.320Z,1016.15
2023-01-26T11:46:03.343Z,1016.23
2023-01-26T11:47:03.282Z,1016.21
2023-01-26T11:48:03.270Z,1016.12
2023-01-26T11:49:03.251Z,1016.10
2023-01-26T11:50:03.250Z,1016.20
2023-01-26T11:51:05.530Z,1016.15
2023-01-26T11:52:03.249Z,1016.09
2023-01-26T11:53:03.210Z,1016.12
2023-01-26T11:54:03.186Z,1016.12
2023-01-26T11:55:03.204Z,1016.06
2023-01-26T11:56:03.182Z,1016.10
2023-01-26T11:57:03.171Z,1016.13
2023-01-26T11:58:03.142Z,1016.11
2023-01-26T11:59:03.144Z,1016.11
2023-01-26T12:00:03.262Z,1016.05
2023-01-26T12:01:03.095Z,1016.07
2023-01-26T12:02:03.118Z,1016.08
2023-01-26T12:03:03.107Z,1016.02
2023-01-26T12:04:03.079Z,1016.00
2023-01-26T12:05:03.059Z,1016.03